^^

..:: Storico WU ::..




Lo storico viene creato da WUnderground con i dati che la stazione Meteomincio invia al loro server. L' aggiornamento viene fatto ogni 5 minuti circa, tuttavia possono esserci intervalli pił ampi a causa di errori, interruzioni di servizio o problemi nell' invio tramite FTP.


Storico stazione MeteoMincio
Giorno Sommario per Giugno 17, 2022 Unità:  Entrambi    Inglese   Metrico
Giorno Settimana Mese Anno
  Max: Min: Media:
Temperatura: 93.2 °F /  34.0 °C 71.6 °F /  22.0 °C 82.2 °F /  27.9 °C
Dew Point: 71.6 °F /  22.0 °C 62.6 °F /  17.0 °C 67.5 °F /  19.7 °C
Umidità: 81% 44% 62%
Velocità vento: 8.1mph /  13km/h - 3.5mph /  5.7km/h
Raffica: 11.8mph /  19km/h - -
Direzione- - East
Pressione: 30.1 in /  1019.2 hPa 30 in /  1015.5 hPa -
Precipitazioni: 0 in /  0.00 mm    
 
 
Tabulato Dati per Giugno 17, 2022
Ora Temperatura Dew Point Pressione Direzione Velocità vento Raffica Umidità Intensità pioggia (oraria) Info solare Situazione
00:04 77 °F /  25.0 °C 66.2 °F /  19.0 °C 30in /  1015.9hPa ENE 6.2mph /  10km/h 9.3mph /  15km/h 71% 0in /  0.00mm 0.00 W/m2 unknown
00:09 77 °F /  25.0 °C 66.2 °F /  19.0 °C 30in /  1015.9hPa ENE 6.2mph /  10km/h 9.3mph /  15km/h 71% 0in /  0.00mm 0.00 W/m2 unknown
00:14 77 °F /  25.0 °C 66.2 °F /  19.0 °C 30in /  1015.9hPa ENE 6.2mph /  10km/h 8.7mph /  14km/h 71% 0in /  0.00mm 0.00 W/m2 unknown
00:19 77 °F /  25.0 °C 66.2 °F /  19.0 °C 30in /  1016.0hPa ENE 5mph /  8km/h 8.1mph /  13km/h 71% 0in /  0.00mm 0.00 W/m2 unknown
00:24 77 °F /  25.0 °C 66.2 °F /  19.0 °C 30in /  1016.0hPa ENE 5mph /  8km/h 8.1mph /  13km/h 72% 0in /  0.00mm 0.00 W/m2 unknown
00:29 75.2 °F /  24.0 °C 66.2 °F /  19.0 °C 30in /  1016.0hPa ENE 6.2mph /  10km/h 8.1mph /  13km/h 72% 0in /  0.00mm 0.00 W/m2 unknown
00:34 75.2 °F /  24.0 °C 66.2 °F /  19.0 °C 30in /  1016.0hPa ENE 6.8mph /  11km/h 9.3mph /  15km/h 72% 0in /  0.00mm 0.00 W/m2 unknown
00:39 75.2 °F /  24.0 °C 66.2 °F /  19.0 °C 30in /  1015.9hPa ENE 6.8mph /  11km/h 9.3mph /  15km/h 72% 0in /  0.00mm 0.00 W/m2 unknown
00:44 75.2 °F /  24.0 °C 66.2 °F /  19.0 °C 30in /  1015.9hPa ENE 6.2mph /  10km/h 9.3mph /  15km/h 71% 0in /  0.00mm 0.00 W/m2 unknown
00:49 75.2 °F /  24.0 °C 66.2 °F /  19.0 °C 30in /  1016.0hPa ENE 6.2mph /  10km/h 8.7mph /  14km/h 71% 0in /  0.00mm 0.00 W/m2 unknown
00:54 75.2 °F /  24.0 °C 66.2 °F /  19.0 °C 30in /  1016.1hPa ENE 5mph /  8km/h 6.8mph /  11km/h 71% 0in /  0.00mm 0.00 W/m2 unknown
00:59 75.2 °F /  24.0 °C 66.2 °F /  19.0 °C 30in /  1016.1hPa ENE 5mph /  8km/h 8.1mph /  13km/h 71% 0in /  0.00mm 0.00 W/m2 unknown
01:04 75.2 °F /  24.0 °C 64.4 °F /  18.0 °C 30in /  1016.1hPa ENE 5.6mph /  9km/h 8.1mph /  13km/h 70% 0in /  0.00mm 0.00 W/m2 unknown
01:09 75.2 °F /  24.0 °C 64.4 °F /  18.0 °C 30in /  1016.2hPa ENE 6.2mph /  10km/h 8.1mph /  13km/h 70% 0in /  0.00mm 0.00 W/m2 unknown
01:14 75.2 °F /  24.0 °C 64.4 °F /  18.0 °C 30in /  1016.3hPa ENE 5mph /  8km/h 6.8mph /  11km/h 70% 0in /  0.00mm 0.00 W/m2 unknown
01:19 75.2 °F /  24.0 °C 64.4 °F /  18.0 °C 30in /  1016.3hPa ENE 5.6mph /  9km/h 8.1mph /  13km/h 69% 0in /  0.00mm 0.00 W/m2 unknown
01:24 75.2 °F /  24.0 °C 64.4 °F /  18.0 °C 30in /  1016.2hPa ENE 6.2mph /  10km/h 8.1mph /  13km/h 68% 0in /  0.00mm 0.00 W/m2 unknown
01:29 75.2 °F /  24.0 °C 64.4 °F /  18.0 °C 30in /  1016.1hPa ENE 6.2mph /  10km/h 8.1mph /  13km/h 68% 0in /  0.00mm 0.00 W/m2 unknown
01:34 75.2 °F /  24.0 °C 64.4 °F /  18.0 °C 30in /  1016.2hPa ENE 5.6mph /  9km/h 8.1mph /  13km/h 68% 0in /  0.00mm 0.00 W/m2 unknown
01:39 75.2 °F /  24.0 °C 64.4 °F /  18.0 °C 30in /  1016.2hPa ENE 6.2mph /  10km/h 8.1mph /  13km/h 68% 0in /  0.00mm 0.00 W/m2 unknown
01:44 75.2 °F /  24.0 °C 64.4 °F /  18.0 °C 30in /  1016.2hPa ENE 6.2mph /  10km/h 8.1mph /  13km/h 68% 0in /  0.00mm 0.00 W/m2 unknown
01:49 75.2 °F /  24.0 °C 64.4 °F /  18.0 °C 30in /  1016.2hPa ENE 7.5mph /  12km/h 11.8mph /  19km/h 69% 0in /  0.00mm 0.00 W/m2 unknown
01:54 75.2 °F /  24.0 °C 64.4 °F /  18.0 °C 30in /  1016.2hPa ENE 8.1mph /  13km/h 11.8mph /  19km/h 69% 0in /  0.00mm 0.00 W/m2 unknown
01:59 75.2 °F /  24.0 °C 64.4 °F /  18.0 °C 30in /  1016.2hPa ENE 8.1mph /  13km/h 11.8mph /  19km/h 70% 0in /  0.00mm 0.00 W/m2 unknown
02:04 75.2 °F /  24.0 °C 64.4 °F /  18.0 °C 30in /  1016.2hPa ENE 6.8mph /  11km/h 11.8mph /  19km/h 70% 0in /  0.00mm 0.00 W/m2 unknown
02:09 75.2 °F /  24.0 °C 66.2 °F /  19.0 °C 30in /  1016.3hPa ENE 5mph /  8km/h 9.3mph /  15km/h 71% 0in /  0.00mm 0.00 W/m2 unknown
02:14 75.2 °F /  24.0 °C 66.2 °F /  19.0 °C 30in /  1016.3hPa ENE 5mph /  8km/h 9.3mph /  15km/h 71% 0in /  0.00mm 0.00 W/m2 unknown
02:19 75.2 °F /  24.0 °C 66.2 °F /  19.0 °C 30in /  1016.4hPa ENE 5mph /  8km/h 9.3mph /  15km/h 71% 0in /  0.00mm 0.00 W/m2 unknown
02:23 75.2 °F /  24.0 °C 66.2 °F /  19.0 °C 30in /  1016.4hPa East 5mph /  8km/h 8.7mph /  14km/h 71% 0in /  0.00mm 0.00 W/m2 unknown
02:29 75.2 °F /  24.0 °C 66.2 °F /  19.0 °C 30in /  1016.4hPa ENE 5mph /  8km/h 6.8mph /  11km/h 71% 0in /  0.00mm 0.00 W/m2 unknown
02:34 75.2 °F /  24.0 °C 66.2 °F /  19.0 °C 30in /  1016.4hPa ENE 5mph /  8km/h 8.1mph /  13km/h 71% 0in /  0.00mm 0.00 W/m2 unknown
02:39 75.2 °F /  24.0 °C 64.4 °F /  18.0 °C 30in /  1016.4hPa NE 5.6mph /  9km/h 8.1mph /  13km/h 71% 0in /  0.00mm 0.00 W/m2 unknown
02:44 75.2 °F /  24.0 °C 64.4 °F /  18.0 °C 30in /  1016.3hPa ENE 6.2mph /  10km/h 8.1mph /  13km/h 71% 0in /  0.00mm 0.00 W/m2 unknown
02:49 75.2 °F /  24.0 °C 64.4 °F /  18.0 °C 30in /  1016.3hPa ENE 5mph /  8km/h 8.1mph /  13km/h 71% 0in /  0.00mm 0.00 W/m2 unknown
02:54 75.2 °F /  24.0 °C 64.4 °F /  18.0 °C 30in /  1016.3hPa ENE 5mph /  8km/h 8.1mph /  13km/h 71% 0in /  0.00mm 0.00 W/m2 unknown
02:59 75.2 °F /  24.0 °C 64.4 °F /  18.0 °C 30in /  1016.3hPa ENE 5mph /  8km/h 8.1mph /  13km/h 71% 0in /  0.00mm 0.00 W/m2 unknown
03:04 75.2 °F /  24.0 °C 64.4 °F /  18.0 °C 30in /  1016.3hPa ENE 5mph /  8km/h 6.8mph /  11km/h 71% 0in /  0.00mm 0.00 W/m2 unknown
03:09 75.2 °F /  24.0 °C 64.4 °F /  18.0 °C 30in /  1016.3hPa ENE 3.7mph /  6km/h 5mph /  8km/h 71% 0in /  0.00mm 0.00 W/m2 unknown
03:14 75.2 °F /  24.0 °C 64.4 °F /  18.0 °C 30in /  1016.3hPa ENE 3.7mph /  6km/h 6.8mph /  11km/h 71% 0in /  0.00mm 0.00 W/m2 unknown
03:19 75.2 °F /  24.0 °C 64.4 °F /  18.0 °C 30in /  1016.3hPa ENE 4.3mph /  7km/h 6.8mph /  11km/h 71% 0in /  0.00mm 0.00 W/m2 unknown
03:24 75.2 °F /  24.0 °C 64.4 °F /  18.0 °C 30in /  1016.2hPa ENE 3.7mph /  6km/h 6.8mph /  11km/h 71% 0in /  0.00mm 0.00 W/m2 unknown
03:29 75.2 °F /  24.0 °C 64.4 °F /  18.0 °C 30in /  1016.2hPa East 3.1mph /  5km/h 5mph /  8km/h 71% 0in /  0.00mm 0.00 W/m2 unknown
03:34 75.2 °F /  24.0 °C 64.4 °F /  18.0 °C 30in /  1016.2hPa ENE 3.1mph /  5km/h 5mph /  8km/h 71% 0in /  0.00mm 0.00 W/m2 unknown
03:39 73.4 °F /  23.0 °C 64.4 °F /  18.0 °C 30in /  1016.2hPa ENE 2.5mph /  4km/h 4.3mph /  7km/h 72% 0in /  0.00mm 0.00 W/m2 unknown
03:44 73.4 °F /  23.0 °C 64.4 °F /  18.0 °C 30in /  1016.2hPa ENE 1.9mph /  3km/h 5mph /  8km/h 72% 0in /  0.00mm 0.00 W/m2 unknown
03:49 73.4 °F /  23.0 °C 64.4 °F /  18.0 °C 30in /  1016.2hPa ENE 1.9mph /  3km/h 3.1mph /  5km/h 72% 0in /  0.00mm 0.00 W/m2 unknown
03:54 73.4 °F /  23.0 °C 64.4 °F /  18.0 °C 30in /  1016.2hPa ENE 1.9mph /  3km/h 3.7mph /  6km/h 73% 0in /  0.00mm 0.00 W/m2 unknown
03:59 73.4 °F /  23.0 °C 64.4 °F /  18.0 °C 30in /  1016.2hPa NE 2.5mph /  4km/h 3.7mph /  6km/h 73% 0in /  0.00mm 0.00 W/m2 unknown
04:03 73.4 °F /  23.0 °C 64.4 °F /  18.0 °C 30in /  1016.2hPa ENE 2.5mph /  4km/h 3.7mph /  6km/h 73% 0in /  0.00mm 0.00 W/m2 unknown
04:08 73.4 °F /  23.0 °C 64.4 °F /  18.0 °C 30in /  1016.3hPa ENE 2.5mph /  4km/h 3.7mph /  6km/h 73% 0in /  0.00mm 0.00 W/m2 unknown
04:13 73.4 °F /  23.0 °C 64.4 °F /  18.0 °C 30in /  1016.3hPa ENE 1.9mph /  3km/h 3.7mph /  6km/h 74% 0in /  0.00mm 0.00 W/m2 unknown
04:18 73.4 °F /  23.0 °C 64.4 °F /  18.0 °C 30in /  1016.3hPa ENE 2.5mph /  4km/h 5mph /  8km/h 74% 0in /  0.00mm 0.00 W/m2 unknown
04:23 73.4 °F /  23.0 °C 64.4 °F /  18.0 °C 30in /  1016.2hPa ENE 3.1mph /  5km/h 5mph /  8km/h 74% 0in /  0.00mm 0.00 W/m2 unknown
04:28 73.4 °F /  23.0 °C 64.4 °F /  18.0 °C 30in /  1016.2hPa ENE 3.1mph /  5km/h 4.3mph /  7km/h 74% 0in /  0.00mm 0.00 W/m2 unknown
04:34 73.4 °F /  23.0 °C 64.4 °F /  18.0 °C 30in /  1016.2hPa ENE 3.1mph /  5km/h 5mph /  8km/h 75% 0in /  0.00mm 0.00 W/m2 unknown
04:38 73.4 °F /  23.0 °C 64.4 °F /  18.0 °C 30in /  1016.2hPa NE 2.5mph /  4km/h 3.7mph /  6km/h 75% 0in /  0.00mm 0.00 W/m2 unknown
04:43 73.4 °F /  23.0 °C 64.4 °F /  18.0 °C 30in /  1016.2hPa NE 2.5mph /  4km/h 3.7mph /  6km/h 76% 0in /  0.00mm 0.00 W/m2 unknown
04:48 73.4 °F /  23.0 °C 64.4 °F /  18.0 °C 30in /  1016.2hPa NE 1.9mph /  3km/h 3.7mph /  6km/h 76% 0in /  0.00mm 0.00 W/m2 unknown
04:53 73.4 °F /  23.0 °C 64.4 °F /  18.0 °C 30in /  1016.2hPa NE 1.9mph /  3km/h 3.7mph /  6km/h 76% 0in /  0.00mm 0.00 W/m2 unknown
04:58 73.4 °F /  23.0 °C 64.4 °F /  18.0 °C 30in /  1016.3hPa NE 0.6mph /  1km/h 2.5mph /  4km/h 76% 0in /  0.00mm 0.00 W/m2 unknown
05:04 73.4 °F /  23.0 °C 64.4 °F /  18.0 °C 30in /  1016.4hPa NE 1.2mph /  2km/h 1.9mph /  3km/h 76% 0in /  0.00mm 0.00 W/m2 unknown
05:09 73.4 °F /  23.0 °C 64.4 °F /  18.0 °C 30in /  1016.4hPa Calm   1.2mph /  2km/h 76% 0in /  0.00mm 0.00 W/m2 unknown
05:14 73.4 °F /  23.0 °C 64.4 °F /  18.0 °C 30in /  1016.5hPa Calm     78% 0in /  0.00mm 0.00 W/m2 unknown
05:19 73.4 °F /  23.0 °C 64.4 °F /  18.0 °C 30in /  1016.5hPa Calm     79% 0in /  0.00mm 0.00 W/m2 unknown
05:23 71.6 °F /  22.0 °C 64.4 °F /  18.0 °C 30in /  1016.6hPa Calm     79% 0in /  0.00mm 0.00 W/m2 unknown
05:29 71.6 °F /  22.0 °C 64.4 °F /  18.0 °C 30in /  1016.6hPa Calm     80% 0in /  0.00mm 0.00 W/m2 unknown
05:33 71.6 °F /  22.0 °C 64.4 °F /  18.0 °C 30in /  1016.6hPa NE 0.6mph /  1km/h 1.2mph /  2km/h 80% 0in /  0.00mm 5.00 W/m2 unknown
05:39 71.6 °F /  22.0 °C 64.4 °F /  18.0 °C 30in /  1016.7hPa NE 0.6mph /  1km/h 1.2mph /  2km/h 80% 0in /  0.00mm 7.00 W/m2 unknown
05:44 71.6 °F /  22.0 °C 64.4 °F /  18.0 °C 30in /  1016.8hPa Calm   1.2mph /  2km/h 81% 0in /  0.00mm 11.00 W/m2 unknown
05:49 71.6 °F /  22.0 °C 64.4 °F /  18.0 °C 30in /  1016.8hPa NE 1.9mph /  3km/h 3.7mph /  6km/h 81% 0in /  0.00mm 12.00 W/m2 unknown
05:54 71.6 °F /  22.0 °C 64.4 °F /  18.0 °C 30in /  1016.9hPa NNE 2.5mph /  4km/h 3.7mph /  6km/h 81% 0in /  0.00mm 16.00 W/m2 unknown
05:59 71.6 °F /  22.0 °C 66.2 °F /  19.0 °C 30in /  1016.9hPa NNE 2.5mph /  4km/h 3.7mph /  6km/h 81% 0in /  0.00mm 19.00 W/m2 unknown
06:04 71.6 °F /  22.0 °C 64.4 °F /  18.0 °C 30in /  1016.9hPa NE 2.5mph /  4km/h 3.7mph /  6km/h 80% 0in /  0.00mm 19.00 W/m2 unknown
06:08 71.6 °F /  22.0 °C 64.4 °F /  18.0 °C 30in /  1016.9hPa NE 2.5mph /  4km/h 3.7mph /  6km/h 81% 0in /  0.00mm 19.00 W/m2 unknown
06:14 71.6 °F /  22.0 °C 66.2 °F /  19.0 °C 30in /  1017.0hPa NNE 2.5mph /  4km/h 3.7mph /  6km/h 81% 0in /  0.00mm 33.00 W/m2 unknown
06:19 71.6 °F /  22.0 °C 66.2 °F /  19.0 °C 30in /  1017.1hPa NNE 1.9mph /  3km/h 3.7mph /  6km/h 81% 0in /  0.00mm 40.00 W/m2 unknown
06:24 71.6 °F /  22.0 °C 66.2 °F /  19.0 °C 30in /  1017.1hPa NNE 1.2mph /  2km/h 3.1mph /  5km/h 80% 0in /  0.00mm 47.00 W/m2 unknown
06:29 71.6 °F /  22.0 °C 66.2 °F /  19.0 °C 30in /  1017.2hPa Calm   1.2mph /  2km/h 80% 0in /  0.00mm 54.00 W/m2 unknown
06:34 71.6 °F /  22.0 °C 66.2 °F /  19.0 °C 30in /  1017.2hPa Calm     80% 0in /  0.00mm 63.00 W/m2 unknown
06:39 71.6 °F /  22.0 °C 66.2 °F /  19.0 °C 30in /  1017.3hPa Calm     80% 0in /  0.00mm 72.00 W/m2 unknown
06:44 73.4 °F /  23.0 °C 66.2 °F /  19.0 °C 30in /  1017.4hPa Calm     80% 0in /  0.00mm 84.00 W/m2 unknown
06:49 73.4 °F /  23.0 °C 66.2 °F /  19.0 °C 30in /  1017.3hPa Calm     80% 0in /  0.00mm 95.00 W/m2 unknown
06:54 73.4 °F /  23.0 °C 66.2 °F /  19.0 °C 30in /  1017.3hPa Calm     80% 0in /  0.00mm 104.00 W/m2 unknown
06:59 73.4 °F /  23.0 °C 66.2 °F /  19.0 °C 30in /  1017.2hPa Calm   1.9mph /  3km/h 79% 0in /  0.00mm 114.00 W/m2 unknown
07:04 73.4 °F /  23.0 °C 66.2 °F /  19.0 °C 30in /  1017.3hPa NE 0.6mph /  1km/h 2.5mph /  4km/h 77% 0in /  0.00mm 128.00 W/m2 unknown
07:09 75.2 °F /  24.0 °C 66.2 °F /  19.0 °C 30in /  1017.3hPa NE 0.6mph /  1km/h 2.5mph /  4km/h 77% 0in /  0.00mm 156.00 W/m2 unknown
07:14 75.2 °F /  24.0 °C 66.2 °F /  19.0 °C 30in /  1017.3hPa NE 0.6mph /  1km/h 2.5mph /  4km/h 76% 0in /  0.00mm 176.00 W/m2 unknown
07:19 75.2 °F /  24.0 °C 66.2 °F /  19.0 °C 30in /  1017.3hPa NE 1.2mph /  2km/h 2.5mph /  4km/h 76% 0in /  0.00mm 190.00 W/m2 unknown
07:24 75.2 °F /  24.0 °C 66.2 °F /  19.0 °C 30in /  1017.3hPa NE 1.9mph /  3km/h 3.7mph /  6km/h 76% 0in /  0.00mm 181.00 W/m2 unknown
07:29 75.2 °F /  24.0 °C 66.2 °F /  19.0 °C 30in /  1017.3hPa NE 1.9mph /  3km/h 3.7mph /  6km/h 74% 0in /  0.00mm 165.00 W/m2 unknown
07:34 75.2 °F /  24.0 °C 66.2 °F /  19.0 °C 30in /  1017.3hPa ENE 1.2mph /  2km/h 3.7mph /  6km/h 76% 0in /  0.00mm 67.00 W/m2 unknown
07:39 75.2 °F /  24.0 °C 66.2 °F /  19.0 °C 30in /  1017.4hPa East 1.2mph /  2km/h 3.1mph /  5km/h 78% 0in /  0.00mm 63.00 W/m2 unknown
07:44 75.2 °F /  24.0 °C 68 °F /  20.0 °C 30.1in /  1017.5hPa East 1.2mph /  2km/h 2.5mph /  4km/h 80% 0in /  0.00mm 90.00 W/m2 unknown
07:49 73.4 °F /  23.0 °C 68 °F /  20.0 °C 30.1in /  1017.6hPa East 1.2mph /  2km/h 2.5mph /  4km/h 80% 0in /  0.00mm 100.00 W/m2 unknown
07:54 73.4 °F /  23.0 °C 68 °F /  20.0 °C 30.1in /  1017.5hPa ESE 1.2mph /  2km/h 1.9mph /  3km/h 80% 0in /  0.00mm 221.00 W/m2 unknown
07:59 75.2 °F /  24.0 °C 68 °F /  20.0 °C 30.1in /  1017.6hPa Calm   1.2mph /  2km/h 79% 0in /  0.00mm 299.00 W/m2 unknown
08:04 75.2 °F /  24.0 °C 68 °F /  20.0 °C 30.1in /  1017.6hPa Calm   1.2mph /  2km/h 78% 0in /  0.00mm 299.00 W/m2 unknown
08:09 77 °F /  25.0 °C 68 °F /  20.0 °C 30.1in /  1017.6hPa East 0.6mph /  1km/h 1.2mph /  2km/h 76% 0in /  0.00mm 309.00 W/m2 unknown
08:14 77 °F /  25.0 °C 68 °F /  20.0 °C 30.1in /  1017.7hPa ESE 0.6mph /  1km/h 2.5mph /  4km/h 74% 0in /  0.00mm 315.00 W/m2 unknown
08:18 77 °F /  25.0 °C 68 °F /  20.0 °C 30.1in /  1017.8hPa SSE 1.2mph /  2km/h 3.1mph /  5km/h 75% 0in /  0.00mm 320.00 W/m2 unknown
08:24 77 °F /  25.0 °C 68 °F /  20.0 °C 30.1in /  1017.7hPa South 1.2mph /  2km/h 3.7mph /  6km/h 75% 0in /  0.00mm 315.00 W/m2 unknown
08:29 77 °F /  25.0 °C 68 °F /  20.0 °C 30.1in /  1017.8hPa SW 2.5mph /  4km/h 3.7mph /  6km/h 75% 0in /  0.00mm 315.00 W/m2 unknown
08:34 77 °F /  25.0 °C 68 °F /  20.0 °C 30.1in /  1017.8hPa SW 1.9mph /  3km/h 3.7mph /  6km/h 74% 0in /  0.00mm 424.00 W/m2 unknown
08:39 77 °F /  25.0 °C 68 °F /  20.0 °C 30.1in /  1017.8hPa ESE 1.9mph /  3km/h 3.7mph /  6km/h 73% 0in /  0.00mm 448.00 W/m2 unknown
08:44 78.8 °F /  26.0 °C 68 °F /  20.0 °C 30.1in /  1017.9hPa SE 1.2mph /  2km/h 3.7mph /  6km/h 73% 0in /  0.00mm 450.00 W/m2 unknown
08:49 78.8 °F /  26.0 °C 68 °F /  20.0 °C 30.1in /  1017.9hPa ESE 1.9mph /  3km/h 3.7mph /  6km/h 72% 0in /  0.00mm 468.00 W/m2 unknown
08:54 78.8 °F /  26.0 °C 69.8 °F /  21.0 °C 30.1in /  1017.9hPa SSE 1.9mph /  3km/h 3.7mph /  6km/h 74% 0in /  0.00mm 480.00 W/m2 unknown
08:59 78.8 °F /  26.0 °C 69.8 °F /  21.0 °C 30.1in /  1017.8hPa SE 1.9mph /  3km/h 3.7mph /  6km/h 74% 0in /  0.00mm 487.00 W/m2 unknown
09:04 78.8 °F /  26.0 °C 69.8 °F /  21.0 °C 30.1in /  1017.8hPa East 1.9mph /  3km/h 3.7mph /  6km/h 72% 0in /  0.00mm 462.00 W/m2 unknown
09:09 78.8 °F /  26.0 °C 69.8 °F /  21.0 °C 30.1in /  1017.8hPa ESE 1.9mph /  3km/h 3.7mph /  6km/h 72% 0in /  0.00mm 534.00 W/m2 unknown
09:14 78.8 °F /  26.0 °C 68 °F /  20.0 °C 30.1in /  1018.0hPa ESE 1.9mph /  3km/h 3.7mph /  6km/h 71% 0in /  0.00mm 529.00 W/m2 unknown
09:19 80.6 °F /  27.0 °C 69.8 °F /  21.0 °C 30.1in /  1018.0hPa East 2.5mph /  4km/h 5mph /  8km/h 70% 0in /  0.00mm 570.00 W/m2 unknown
09:24 80.6 °F /  27.0 °C 69.8 °F /  21.0 °C 30.1in /  1018.0hPa ESE 2.5mph /  4km/h 5mph /  8km/h 70% 0in /  0.00mm 578.00 W/m2 unknown
09:29 82.4 °F /  28.0 °C 69.8 °F /  21.0 °C 30.1in /  1018.0hPa ENE 2.5mph /  4km/h 6.8mph /  11km/h 70% 0in /  0.00mm 554.00 W/m2 unknown
09:34 82.4 °F /  28.0 °C 69.8 °F /  21.0 °C 30.1in /  1018.0hPa ENE 3.1mph /  5km/h 6.8mph /  11km/h 68% 0in /  0.00mm 541.00 W/m2 unknown
09:38 82.4 °F /  28.0 °C 69.8 °F /  21.0 °C 30.1in /  1018.0hPa ENE 3.1mph /  5km/h 6.8mph /  11km/h 68% 0in /  0.00mm 582.00 W/m2 unknown
09:44 82.4 °F /  28.0 °C 69.8 °F /  21.0 °C 30.1in /  1018.0hPa SE 3.1mph /  5km/h 6.8mph /  11km/h 66% 0in /  0.00mm 619.00 W/m2 unknown
09:49 82.4 °F /  28.0 °C 69.8 °F /  21.0 °C 30.1in /  1018.0hPa ESE 3.7mph /  6km/h 6.8mph /  11km/h 66% 0in /  0.00mm 608.00 W/m2 unknown
09:54 82.4 °F /  28.0 °C 69.8 °F /  21.0 °C 30.1in /  1017.9hPa East 5mph /  8km/h 8.1mph /  13km/h 65% 0in /  0.00mm 656.00 W/m2 unknown
09:59 82.4 °F /  28.0 °C 69.8 °F /  21.0 °C 30.1in /  1017.9hPa East 5.6mph /  9km/h 8.1mph /  13km/h 64% 0in /  0.00mm 659.00 W/m2 unknown
10:04 82.4 °F /  28.0 °C 69.8 °F /  21.0 °C 30.1in /  1017.9hPa ESE 5.6mph /  9km/h 8.1mph /  13km/h 64% 0in /  0.00mm 715.00 W/m2 unknown
10:09 82.4 °F /  28.0 °C 69.8 °F /  21.0 °C 30.1in /  1017.9hPa East 5mph /  8km/h 8.1mph /  13km/h 65% 0in /  0.00mm 728.00 W/m2 unknown
10:14 84.2 °F /  29.0 °C 69.8 °F /  21.0 °C 30.1in /  1017.9hPa ENE 5mph /  8km/h 8.1mph /  13km/h 64% 0in /  0.00mm 745.00 W/m2 unknown
10:19 84.2 °F /  29.0 °C 69.8 °F /  21.0 °C 30.1in /  1017.9hPa East 5mph /  8km/h 8.1mph /  13km/h 63% 0in /  0.00mm 738.00 W/m2 unknown
10:24 84.2 °F /  29.0 °C 69.8 °F /  21.0 °C 30.1in /  1017.9hPa East 5mph /  8km/h 8.1mph /  13km/h 63% 0in /  0.00mm 729.00 W/m2 unknown
10:29 82.4 °F /  28.0 °C 69.8 °F /  21.0 °C 30.1in /  1017.9hPa SE 5mph /  8km/h 6.8mph /  11km/h 64% 0in /  0.00mm 729.00 W/m2 unknown
10:34 84.2 °F /  29.0 °C 69.8 °F /  21.0 °C 30.1in /  1017.9hPa SE 5mph /  8km/h 6.8mph /  11km/h 64% 0in /  0.00mm 761.00 W/m2 unknown
10:39 84.2 °F /  29.0 °C 69.8 °F /  21.0 °C 30.1in /  1017.9hPa SE 4.3mph /  7km/h 6.8mph /  11km/h 65% 0in /  0.00mm 722.00 W/m2 unknown
10:44 84.2 °F /  29.0 °C 69.8 °F /  21.0 °C 30.1in /  1017.9hPa SSE 5mph /  8km/h 6.8mph /  11km/h 63% 0in /  0.00mm 722.00 W/m2 unknown
10:49 84.2 °F /  29.0 °C 69.8 °F /  21.0 °C 30.1in /  1017.9hPa WNW 5mph /  8km/h 6.8mph /  11km/h 63% 0in /  0.00mm 701.00 W/m2 unknown
10:54 84.2 °F /  29.0 °C 69.8 °F /  21.0 °C 30.1in /  1017.9hPa ENE 4.3mph /  7km/h 6.2mph /  10km/h 63% 0in /  0.00mm 733.00 W/m2 unknown
10:59 84.2 °F /  29.0 °C 69.8 °F /  21.0 °C 30.1in /  1017.9hPa ESE 3.7mph /  6km/h 6.2mph /  10km/h 60% 0in /  0.00mm 733.00 W/m2 unknown
11:04 84.2 °F /  29.0 °C 69.8 °F /  21.0 °C 30.1in /  1017.9hPa SE 3.1mph /  5km/h 6.2mph /  10km/h 60% 0in /  0.00mm 719.00 W/m2 unknown
11:09 84.2 °F /  29.0 °C 68 °F /  20.0 °C 30.1in /  1017.9hPa ENE 3.1mph /  5km/h 6.8mph /  11km/h 59% 0in /  0.00mm 719.00 W/m2 unknown
11:14 84.2 °F /  29.0 °C 69.8 °F /  21.0 °C 30.1in /  1017.9hPa East 4.3mph /  7km/h 6.8mph /  11km/h 60% 0in /  0.00mm 737.00 W/m2 unknown
11:19 86 °F /  30.0 °C 69.8 °F /  21.0 °C 30.1in /  1017.9hPa East 5mph /  8km/h 6.8mph /  11km/h 60% 0in /  0.00mm 740.00 W/m2 unknown
11:24 86 °F /  30.0 °C 69.8 °F /  21.0 °C 30.1in /  1017.9hPa East 5mph /  8km/h 6.8mph /  11km/h 60% 0in /  0.00mm 758.00 W/m2 unknown
11:29 86 °F /  30.0 °C 69.8 °F /  21.0 °C 30.1in /  1017.9hPa East 5mph /  8km/h 6.8mph /  11km/h 58% 0in /  0.00mm 754.00 W/m2 unknown
11:34 86 °F /  30.0 °C 69.8 °F /  21.0 °C 30.1in /  1017.9hPa SE 3.7mph /  6km/h 6.8mph /  11km/h 59% 0in /  0.00mm 745.00 W/m2 unknown
11:39 86 °F /  30.0 °C 69.8 °F /  21.0 °C 30.1in /  1017.8hPa SSE 3.1mph /  5km/h 6.2mph /  10km/h 58% 0in /  0.00mm 782.00 W/m2 unknown
11:44 86 °F /  30.0 °C 69.8 °F /  21.0 °C 30.1in /  1017.9hPa East 3.1mph /  5km/h 6.2mph /  10km/h 60% 0in /  0.00mm 782.00 W/m2 unknown
11:49 86 °F /  30.0 °C 69.8 °F /  21.0 °C 30.1in /  1017.9hPa NNW 1.9mph /  3km/h 6.2mph /  10km/h 57% 0in /  0.00mm 775.00 W/m2 unknown
11:54 86 °F /  30.0 °C 69.8 °F /  21.0 °C 30.1in /  1017.9hPa ESE 3.1mph /  5km/h 8.1mph /  13km/h 58% 0in /  0.00mm 789.00 W/m2 unknown
11:59 86 °F /  30.0 °C 69.8 °F /  21.0 °C 30.1in /  1017.9hPa East 3.7mph /  6km/h 8.1mph /  13km/h 57% 0in /  0.00mm 819.00 W/m2 unknown
12:04 86 °F /  30.0 °C 69.8 °F /  21.0 °C 30.1in /  1017.9hPa ESE 3.7mph /  6km/h 6.8mph /  11km/h 57% 0in /  0.00mm 816.00 W/m2 unknown
12:09 87.8 °F /  31.0 °C 69.8 °F /  21.0 °C 30.1in /  1017.9hPa East 3.7mph /  6km/h 8.1mph /  13km/h 56% 0in /  0.00mm 838.00 W/m2 unknown
12:14 87.8 °F /  31.0 °C 69.8 °F /  21.0 °C 30.1in /  1017.9hPa ENE 5mph /  8km/h 8.1mph /  13km/h 56% 0in /  0.00mm 775.00 W/m2 unknown
12:19 87.8 °F /  31.0 °C 69.8 °F /  21.0 °C 30.1in /  1017.8hPa ENE 5mph /  8km/h 8.1mph /  13km/h 56% 0in /  0.00mm 772.00 W/m2 unknown
12:24 87.8 °F /  31.0 °C 69.8 °F /  21.0 °C 30.1in /  1017.8hPa ESE 3.7mph /  6km/h 8.1mph /  13km/h 55% 0in /  0.00mm 803.00 W/m2 unknown
12:29 87.8 °F /  31.0 °C 69.8 °F /  21.0 °C 30.1in /  1017.8hPa ESE 3.1mph /  5km/h 8.1mph /  13km/h 57% 0in /  0.00mm 823.00 W/m2 unknown
12:34 87.8 °F /  31.0 °C 69.8 °F /  21.0 °C 30.1in /  1017.8hPa East 3.1mph /  5km/h 5mph /  8km/h 58% 0in /  0.00mm 823.00 W/m2 unknown
12:39 87.8 °F /  31.0 °C 71.6 °F /  22.0 °C 30.1in /  1017.7hPa ENE 4.3mph /  7km/h 8.1mph /  13km/h 57% 0in /  0.00mm 830.00 W/m2 unknown
12:44 87.8 °F /  31.0 °C 71.6 °F /  22.0 °C 30.1in /  1017.7hPa East 5mph /  8km/h 8.1mph /  13km/h 57% 0in /  0.00mm 831.00 W/m2 unknown
12:49 87.8 °F /  31.0 °C 71.6 °F /  22.0 °C 30.1in /  1017.6hPa NE 5mph /  8km/h 8.1mph /  13km/h 57% 0in /  0.00mm 831.00 W/m2 unknown
12:54 87.8 °F /  31.0 °C 69.8 °F /  21.0 °C 30.1in /  1017.6hPa ENE 3.7mph /  6km/h 8.1mph /  13km/h 56% 0in /  0.00mm 844.00 W/m2 unknown
12:59 87.8 °F /  31.0 °C 69.8 °F /  21.0 °C 30.1in /  1017.5hPa NE 4.3mph /  7km/h 6.8mph /  11km/h 55% 0in /  0.00mm 846.00 W/m2 unknown
13:04 89.6 °F /  32.0 °C 69.8 °F /  21.0 °C 30.1in /  1017.5hPa SE 3.1mph /  5km/h 6.8mph /  11km/h 55% 0in /  0.00mm 861.00 W/m2 unknown
13:09 89.6 °F /  32.0 °C 71.6 °F /  22.0 °C 30.1in /  1017.5hPa South 1.9mph /  3km/h 3.7mph /  6km/h 58% 0in /  0.00mm 856.00 W/m2 unknown
13:13 89.6 °F /  32.0 °C 69.8 °F /  21.0 °C 30in /  1017.4hPa SSE 1.9mph /  3km/h 3.7mph /  6km/h 55% 0in /  0.00mm 861.00 W/m2 unknown
13:19 89.6 °F /  32.0 °C 69.8 °F /  21.0 °C 30in /  1017.4hPa ESE 1.9mph /  3km/h 3.7mph /  6km/h 55% 0in /  0.00mm 863.00 W/m2 unknown
13:24 89.6 °F /  32.0 °C 71.6 °F /  22.0 °C 30.1in /  1017.5hPa SE 2.5mph /  4km/h 3.7mph /  6km/h 55% 0in /  0.00mm 844.00 W/m2 unknown
13:29 89.6 °F /  32.0 °C 69.8 °F /  21.0 °C 30in /  1017.4hPa East 2.5mph /  4km/h 3.7mph /  6km/h 55% 0in /  0.00mm 854.00 W/m2 unknown
13:34 89.6 °F /  32.0 °C 71.6 °F /  22.0 °C 30in /  1017.4hPa ENE 3.1mph /  5km/h 6.2mph /  10km/h 56% 0in /  0.00mm 863.00 W/m2 unknown
13:39 89.6 °F /  32.0 °C 71.6 °F /  22.0 °C 30in /  1017.4hPa SSE 3.7mph /  6km/h 6.2mph /  10km/h 54% 0in /  0.00mm 861.00 W/m2 unknown
13:44 89.6 °F /  32.0 °C 69.8 °F /  21.0 °C 30in /  1017.4hPa SSE 3.7mph /  6km/h 6.2mph /  10km/h 54% 0in /  0.00mm 856.00 W/m2 unknown
13:49 89.6 °F /  32.0 °C 69.8 °F /  21.0 °C 30in /  1017.3hPa ENE 4.3mph /  7km/h 6.8mph /  11km/h 53% 0in /  0.00mm 854.00 W/m2 unknown
13:54 89.6 °F /  32.0 °C 71.6 °F /  22.0 °C 30in /  1017.2hPa NNE 3.7mph /  6km/h 6.8mph /  11km/h 54% 0in /  0.00mm 854.00 W/m2 unknown
13:59 89.6 °F /  32.0 °C 71.6 °F /  22.0 °C 30in /  1017.2hPa NNE 3.1mph /  5km/h 6.8mph /  11km/h 53% 0in /  0.00mm 849.00 W/m2 unknown
14:04 91.4 °F /  33.0 °C 69.8 °F /  21.0 °C 30in /  1017.2hPa ENE 2.5mph /  4km/h 6.2mph /  10km/h 52% 0in /  0.00mm 858.00 W/m2 unknown
14:09 91.4 °F /  33.0 °C 69.8 °F /  21.0 °C 30in /  1017.2hPa ESE 2.5mph /  4km/h 6.2mph /  10km/h 53% 0in /  0.00mm 858.00 W/m2 unknown
14:14 91.4 °F /  33.0 °C 71.6 °F /  22.0 °C 30in /  1017.1hPa ESE 3.1mph /  5km/h 6.2mph /  10km/h 54% 0in /  0.00mm 835.00 W/m2 unknown
14:19 89.6 °F /  32.0 °C 69.8 °F /  21.0 °C 30in /  1017.1hPa ESE 1.9mph /  3km/h 6.2mph /  10km/h 53% 0in /  0.00mm 812.00 W/m2 unknown
14:24 89.6 °F /  32.0 °C 71.6 °F /  22.0 °C 30in /  1017.1hPa North 1.2mph /  2km/h 3.7mph /  6km/h 55% 0in /  0.00mm 856.00 W/m2 unknown
14:29 91.4 °F /  33.0 °C 71.6 °F /  22.0 °C 30in /  1017.0hPa NNW 1.9mph /  3km/h 3.7mph /  6km/h 53% 0in /  0.00mm 856.00 W/m2 unknown
14:34 91.4 °F /  33.0 °C 69.8 °F /  21.0 °C 30in /  1017.0hPa NNE 1.9mph /  3km/h 3.7mph /  6km/h 52% 0in /  0.00mm 844.00 W/m2 unknown
14:39 91.4 °F /  33.0 °C 69.8 °F /  21.0 °C 30in /  1016.9hPa NW 1.9mph /  3km/h 3.7mph /  6km/h 53% 0in /  0.00mm 826.00 W/m2 unknown
14:44 91.4 °F /  33.0 °C 71.6 °F /  22.0 °C 30in /  1016.9hPa East 4.3mph /  7km/h 8.1mph /  13km/h 52% 0in /  0.00mm 844.00 W/m2 unknown
14:49 91.4 °F /  33.0 °C 71.6 °F /  22.0 °C 30in /  1016.8hPa ESE 5.6mph /  9km/h 8.1mph /  13km/h 51% 0in /  0.00mm 844.00 W/m2 unknown
14:54 91.4 °F /  33.0 °C 69.8 °F /  21.0 °C 30in /  1016.8hPa East 5mph /  8km/h 8.1mph /  13km/h 52% 0in /  0.00mm 809.00 W/m2 unknown
14:59 91.4 °F /  33.0 °C 69.8 °F /  21.0 °C 30in /  1016.8hPa East 5mph /  8km/h 8.1mph /  13km/h 51% 0in /  0.00mm 810.00 W/m2 unknown
15:04 91.4 °F /  33.0 °C 69.8 °F /  21.0 °C 30in /  1016.8hPa ESE 5mph /  8km/h 8.1mph /  13km/h 50% 0in /  0.00mm 809.00 W/m2 unknown
15:09 91.4 °F /  33.0 °C 69.8 °F /  21.0 °C 30in /  1016.7hPa ESE 3.1mph /  5km/h 6.8mph /  11km/h 52% 0in /  0.00mm 784.00 W/m2 unknown
15:14 91.4 °F /  33.0 °C 69.8 °F /  21.0 °C 30in /  1016.7hPa East 4.3mph /  7km/h 6.2mph /  10km/h 51% 0in /  0.00mm 802.00 W/m2 unknown
15:19 91.4 °F /  33.0 °C 69.8 °F /  21.0 °C 30in /  1016.7hPa ESE 4.3mph /  7km/h 6.2mph /  10km/h 50% 0in /  0.00mm 810.00 W/m2 unknown
15:24 91.4 °F /  33.0 °C 71.6 °F /  22.0 °C 30in /  1016.6hPa South 3.1mph /  5km/h 6.2mph /  10km/h 52% 0in /  0.00mm 768.00 W/m2 unknown
15:29 91.4 °F /  33.0 °C 71.6 °F /  22.0 °C 30in /  1016.6hPa ESE 3.1mph /  5km/h 6.2mph /  10km/h 52% 0in /  0.00mm 765.00 W/m2 unknown
15:34 91.4 °F /  33.0 °C 69.8 °F /  21.0 °C 30in /  1016.6hPa NE 3.1mph /  5km/h 5mph /  8km/h 50% 0in /  0.00mm 749.00 W/m2 unknown
15:39 91.4 °F /  33.0 °C 69.8 °F /  21.0 °C 30in /  1016.5hPa ENE 3.1mph /  5km/h 6.2mph /  10km/h 49% 0in /  0.00mm 744.00 W/m2 unknown
15:44 91.4 °F /  33.0 °C 69.8 °F /  21.0 °C 30in /  1016.5hPa ESE 3.1mph /  5km/h 6.2mph /  10km/h 49% 0in /  0.00mm 744.00 W/m2 unknown
15:49 91.4 °F /  33.0 °C 69.8 °F /  21.0 °C 30in /  1016.5hPa ESE 3.1mph /  5km/h 5mph /  8km/h 49% 0in /  0.00mm 729.00 W/m2 unknown
15:54 91.4 °F /  33.0 °C 69.8 °F /  21.0 °C 30in /  1016.5hPa ESE 3.7mph /  6km/h 6.2mph /  10km/h 49% 0in /  0.00mm 728.00 W/m2 unknown
15:59 91.4 °F /  33.0 °C 69.8 °F /  21.0 °C 30in /  1016.4hPa East 3.7mph /  6km/h 6.8mph /  11km/h 48% 0in /  0.00mm 696.00 W/m2 unknown
16:04 91.4 °F /  33.0 °C 68 °F /  20.0 °C 30in /  1016.4hPa ESE 5mph /  8km/h 6.8mph /  11km/h 47% 0in /  0.00mm 724.00 W/m2 unknown
16:09 91.4 °F /  33.0 °C 69.8 °F /  21.0 °C 30in /  1016.4hPa ESE 5mph /  8km/h 6.8mph /  11km/h 48% 0in /  0.00mm 721.00 W/m2 unknown
16:14 91.4 °F /  33.0 °C 69.8 °F /  21.0 °C 30in /  1016.3hPa SE 5mph /  8km/h 6.8mph /  11km/h 48% 0in /  0.00mm 679.00 W/m2 unknown
16:19 91.4 °F /  33.0 °C 69.8 °F /  21.0 °C 30in /  1016.2hPa East 3.7mph /  6km/h 6.8mph /  11km/h 49% 0in /  0.00mm 679.00 W/m2 unknown
16:22 91.4 °F /  33.0 °C 68 °F /  20.0 °C 30in /  1016.0hPa East 3.7mph /  6km/h 6.8mph /  11km/h 47% 0in /  0.00mm 621.00 W/m2 unknown
16:29 91.4 °F /  33.0 °C 68 °F /  20.0 °C 30in /  1016.0hPa East 3.7mph /  6km/h 6.8mph /  11km/h 47% 0in /  0.00mm 629.00 W/m2 unknown
16:34 91.4 °F /  33.0 °C 68 °F /  20.0 °C 30in /  1016.0hPa ESE 3.7mph /  6km/h 5mph /  8km/h 47% 0in /  0.00mm 629.00 W/m2 unknown
16:39 91.4 °F /  33.0 °C 68 °F /  20.0 °C 30in /  1016.0hPa East 2.5mph /  4km/h 5mph /  8km/h 47% 0in /  0.00mm 606.00 W/m2 unknown
16:44 91.4 °F /  33.0 °C 68 °F /  20.0 °C 30in /  1016.0hPa East 3.1mph /  5km/h 5mph /  8km/h 47% 0in /  0.00mm 608.00 W/m2 unknown
16:49 91.4 °F /  33.0 °C 68 °F /  20.0 °C 30in /  1016.0hPa East 3.1mph /  5km/h 6.8mph /  11km/h 46% 0in /  0.00mm 585.00 W/m2 unknown
16:54 93.2 °F /  34.0 °C 68 °F /  20.0 °C 30in /  1016.0hPa East 4.3mph /  7km/h 6.8mph /  11km/h 46% 0in /  0.00mm 584.00 W/m2 unknown
16:59 93.2 °F /  34.0 °C 68 °F /  20.0 °C 30in /  1016.0hPa ESE 4.3mph /  7km/h 6.8mph /  11km/h 46% 0in /  0.00mm 570.00 W/m2 unknown
17:04 93.2 °F /  34.0 °C 68 °F /  20.0 °C 30in /  1015.9hPa ESE 3.7mph /  6km/h 6.8mph /  11km/h 45% 0in /  0.00mm 564.00 W/m2 unknown
17:09 91.4 °F /  33.0 °C 68 °F /  20.0 °C 30in /  1015.9hPa ESE 3.7mph /  6km/h 6.8mph /  11km/h 45% 0in /  0.00mm 554.00 W/m2 unknown
17:14 91.4 °F /  33.0 °C 68 °F /  20.0 °C 30in /  1015.9hPa East 4.3mph /  7km/h 6.8mph /  11km/h 47% 0in /  0.00mm 533.00 W/m2 unknown
17:19 91.4 °F /  33.0 °C 68 °F /  20.0 °C 30in /  1015.9hPa ESE 3.1mph /  5km/h 6.8mph /  11km/h 46% 0in /  0.00mm 519.00 W/m2 unknown
17:24 91.4 °F /  33.0 °C 68 °F /  20.0 °C 30in /  1015.8hPa ESE 3.1mph /  5km/h 5mph /  8km/h 47% 0in /  0.00mm 517.00 W/m2 unknown
17:29 91.4 °F /  33.0 °C 68 °F /  20.0 °C 30in /  1015.7hPa ESE 3.1mph /  5km/h 3.7mph /  6km/h 45% 0in /  0.00mm 490.00 W/m2 unknown
17:34 91.4 °F /  33.0 °C 66.2 °F /  19.0 °C 30in /  1015.7hPa ESE 3.1mph /  5km/h 3.7mph /  6km/h 44% 0in /  0.00mm 476.00 W/m2 unknown
17:39 91.4 °F /  33.0 °C 68 °F /  20.0 °C 30in /  1015.6hPa East 1.9mph /  3km/h 3.7mph /  6km/h 46% 0in /  0.00mm 462.00 W/m2 unknown
17:44 91.4 °F /  33.0 °C 68 °F /  20.0 °C 30in /  1015.6hPa ESE 1.2mph /  2km/h 3.7mph /  6km/h 46% 0in /  0.00mm 452.00 W/m2 unknown
17:49 91.4 °F /  33.0 °C 68 °F /  20.0 °C 30in /  1015.6hPa East 2.5mph /  4km/h 3.7mph /  6km/h 46% 0in /  0.00mm 410.00 W/m2 unknown
17:54 91.4 °F /  33.0 °C 68 °F /  20.0 °C 30in /  1015.6hPa East 2.5mph /  4km/h 3.7mph /  6km/h 45% 0in /  0.00mm 380.00 W/m2 unknown
17:59 91.4 °F /  33.0 °C 68 °F /  20.0 °C 30in /  1015.5hPa East 1.9mph /  3km/h 3.7mph /  6km/h 46% 0in /  0.00mm 380.00 W/m2 unknown
18:04 91.4 °F /  33.0 °C 68 °F /  20.0 °C 30in /  1015.5hPa ESE 3.1mph /  5km/h 5mph /  8km/h 48% 0in /  0.00mm 399.00 W/m2 unknown
18:09 91.4 °F /  33.0 °C 68 °F /  20.0 °C 30in /  1015.5hPa ESE 3.1mph /  5km/h 5mph /  8km/h 47% 0in /  0.00mm 399.00 W/m2 unknown
18:14 91.4 °F /  33.0 °C 66.2 °F /  19.0 °C 30in /  1015.5hPa ESE 3.1mph /  5km/h 5mph /  8km/h 45% 0in /  0.00mm 387.00 W/m2 unknown
18:19 91.4 °F /  33.0 °C 66.2 °F /  19.0 °C 30in /  1015.5hPa East 3.1mph /  5km/h 5mph /  8km/h 45% 0in /  0.00mm 357.00 W/m2 unknown
18:24 91.4 °F /  33.0 °C 68 °F /  20.0 °C 30in /  1015.5hPa ENE 3.1mph /  5km/h 5mph /  8km/h 45% 0in /  0.00mm 355.00 W/m2 unknown
18:29 91.4 °F /  33.0 °C 68 °F /  20.0 °C 30in /  1015.5hPa East 3.1mph /  5km/h 5mph /  8km/h 45% 0in /  0.00mm 330.00 W/m2 unknown
18:34 91.4 °F /  33.0 °C 68 °F /  20.0 °C 30in /  1015.6hPa ENE 3.1mph /  5km/h 4.3mph /  7km/h 45% 0in /  0.00mm 297.00 W/m2 unknown
18:39 91.4 °F /  33.0 °C 68 °F /  20.0 °C 30in /  1015.6hPa ENE 2.5mph /  4km/h 5mph /  8km/h 45% 0in /  0.00mm 294.00 W/m2 unknown
18:44 91.4 °F /  33.0 °C 68 °F /  20.0 °C 30in /  1015.6hPa East 3.1mph /  5km/h 5mph /  8km/h 46% 0in /  0.00mm 272.00 W/m2 unknown
18:49 91.4 °F /  33.0 °C 68 °F /  20.0 °C 30in /  1015.6hPa East 2.5mph /  4km/h 5mph /  8km/h 48% 0in /  0.00mm 230.00 W/m2 unknown
18:54 91.4 °F /  33.0 °C 68 °F /  20.0 °C 30in /  1015.7hPa East 2.5mph /  4km/h 3.7mph /  6km/h 47% 0in /  0.00mm 190.00 W/m2 unknown
18:59 91.4 °F /  33.0 °C 68 °F /  20.0 °C 30in /  1015.7hPa East 2.5mph /  4km/h 3.7mph /  6km/h 48% 0in /  0.00mm 188.00 W/m2 unknown
19:04 91.4 °F /  33.0 °C 68 °F /  20.0 °C 30in /  1015.6hPa ENE 2.5mph /  4km/h 3.7mph /  6km/h 48% 0in /  0.00mm 214.00 W/m2 unknown
19:09 91.4 °F /  33.0 °C 68 °F /  20.0 °C 30in /  1015.7hPa ENE 2.5mph /  4km/h 3.7mph /  6km/h 48% 0in /  0.00mm 214.00 W/m2 unknown
19:13 91.4 °F /  33.0 °C 68 °F /  20.0 °C 30in /  1015.7hPa ENE 2.5mph /  4km/h 3.7mph /  6km/h 48% 0in /  0.00mm 185.00 W/m2 unknown
19:17 91.4 °F /  33.0 °C 68 °F /  20.0 °C 30in /  1015.7hPa NE 2.5mph /  4km/h 3.7mph /  6km/h 48% 0in /  0.00mm 149.00 W/m2 unknown
19:24 91.4 °F /  33.0 °C 68 °F /  20.0 °C 30in /  1015.7hPa East 2.5mph /  4km/h 3.7mph /  6km/h 48% 0in /  0.00mm 137.00 W/m2 unknown
19:29 89.6 °F /  32.0 °C 69.8 °F /  21.0 °C 30in /  1015.7hPa ENE 2.5mph /  4km/h 3.7mph /  6km/h 53% 0in /  0.00mm 137.00 W/m2 unknown
19:34 89.6 °F /  32.0 °C 71.6 °F /  22.0 °C 30in /  1015.7hPa ENE 2.5mph /  4km/h 3.7mph /  6km/h 55% 0in /  0.00mm 125.00 W/m2 unknown
19:39 89.6 °F /  32.0 °C 71.6 °F /  22.0 °C 30in /  1015.7hPa ENE 1.9mph /  3km/h 3.1mph /  5km/h 56% 0in /  0.00mm 125.00 W/m2 unknown
19:44 89.6 °F /  32.0 °C 71.6 °F /  22.0 °C 30in /  1015.7hPa ENE 1.9mph /  3km/h 3.7mph /  6km/h 56% 0in /  0.00mm 90.00 W/m2 unknown
19:49 89.6 °F /  32.0 °C 71.6 °F /  22.0 °C 30in /  1015.8hPa ENE 2.5mph /  4km/h 3.7mph /  6km/h 56% 0in /  0.00mm 88.00 W/m2 unknown
19:54 89.6 °F /  32.0 °C 69.8 °F /  21.0 °C 30in /  1015.8hPa ENE 2.5mph /  4km/h 3.7mph /  6km/h 55% 0in /  0.00mm 76.00 W/m2 unknown
19:59 87.8 °F /  31.0 °C 69.8 °F /  21.0 °C 30in /  1015.8hPa ENE 2.5mph /  4km/h 3.7mph /  6km/h 54% 0in /  0.00mm 65.00 W/m2 unknown
20:04 87.8 °F /  31.0 °C 69.8 °F /  21.0 °C 30in /  1015.8hPa ENE 2.5mph /  4km/h 3.7mph /  6km/h 53% 0in /  0.00mm 62.00 W/m2 unknown
20:08 87.8 °F /  31.0 °C 68 °F /  20.0 °C 30in /  1015.8hPa ENE 2.5mph /  4km/h 3.7mph /  6km/h 52% 0in /  0.00mm 54.00 W/m2 unknown
20:14 87.8 °F /  31.0 °C 69.8 °F /  21.0 °C 30in /  1015.9hPa ENE 3.1mph /  5km/h 3.7mph /  6km/h 54% 0in /  0.00mm 47.00 W/m2 unknown
20:19 87.8 °F /  31.0 °C 69.8 °F /  21.0 °C 30in /  1015.9hPa East 3.1mph /  5km/h 3.7mph /  6km/h 57% 0in /  0.00mm 42.00 W/m2 unknown
20:24 87.8 °F /  31.0 °C 69.8 °F /  21.0 °C 30in /  1015.9hPa ESE 2.5mph /  4km/h 3.7mph /  6km/h 56% 0in /  0.00mm 40.00 W/m2 unknown
20:29 86 °F /  30.0 °C 68 °F /  20.0 °C 30in /  1015.9hPa ESE 2.5mph /  4km/h 3.7mph /  6km/h 56% 0in /  0.00mm 37.00 W/m2 unknown
20:34 86 °F /  30.0 °C 69.8 °F /  21.0 °C 30in /  1016.0hPa ENE 1.9mph /  3km/h 3.7mph /  6km/h 57% 0in /  0.00mm 32.00 W/m2 unknown
20:39 86 °F /  30.0 °C 69.8 °F /  21.0 °C 30in /  1016.1hPa ENE 1.9mph /  3km/h 3.7mph /  6km/h 57% 0in /  0.00mm 26.00 W/m2 unknown
20:44 86 °F /  30.0 °C 69.8 °F /  21.0 °C 30in /  1016.1hPa ENE 1.9mph /  3km/h 3.7mph /  6km/h 57% 0in /  0.00mm 23.00 W/m2 unknown
20:49 86 °F /  30.0 °C 68 °F /  20.0 °C 30in /  1016.3hPa ENE 3.1mph /  5km/h 5mph /  8km/h 56% 0in /  0.00mm 18.00 W/m2 unknown
20:54 86 °F /  30.0 °C 68 °F /  20.0 °C 30in /  1016.4hPa East 5mph /  8km/h 8.1mph /  13km/h 56% 0in /  0.00mm 12.00 W/m2 unknown
20:59 86 °F /  30.0 °C 69.8 °F /  21.0 °C 30in /  1016.4hPa ESE 5.6mph /  9km/h 8.1mph /  13km/h 59% 0in /  0.00mm 7.00 W/m2 unknown
21:04 86 °F /  30.0 °C 69.8 °F /  21.0 °C 30in /  1016.6hPa ESE 5mph /  8km/h 8.1mph /  13km/h 59% 0in /  0.00mm 0.00 W/m2 unknown
21:09 84.2 °F /  29.0 °C 69.8 °F /  21.0 °C 30in /  1016.6hPa ESE 3.7mph /  6km/h 6.8mph /  11km/h 60% 0in /  0.00mm 0.00 W/m2 unknown
21:14 84.2 °F /  29.0 °C 69.8 °F /  21.0 °C 30in /  1016.7hPa ESE 4.3mph /  7km/h 6.8mph /  11km/h 60% 0in /  0.00mm 0.00 W/m2 unknown
21:19 84.2 °F /  29.0 °C 68 °F /  20.0 °C 30in /  1016.8hPa ESE 5.6mph /  9km/h 8.1mph /  13km/h 60% 0in /  0.00mm 0.00 W/m2 unknown
21:24 84.2 °F /  29.0 °C 68 °F /  20.0 °C 30in /  1016.9hPa ESE 5.6mph /  9km/h 8.1mph /  13km/h 60% 0in /  0.00mm 0.00 W/m2 unknown
21:29 84.2 °F /  29.0 °C 68 °F /  20.0 °C 30in /  1017.0hPa ESE 5mph /  8km/h 9.3mph /  15km/h 60% 0in /  0.00mm 0.00 W/m2 unknown
21:34 84.2 °F /  29.0 °C 68 °F /  20.0 °C 30in /  1017.1hPa ESE 6.2mph /  10km/h 9.3mph /  15km/h 59% 0in /  0.00mm 0.00 W/m2 unknown
21:39 84.2 °F /  29.0 °C 66.2 °F /  19.0 °C 30in /  1017.2hPa ESE 6.2mph /  10km/h 9.3mph /  15km/h 58% 0in /  0.00mm 0.00 W/m2 unknown
21:44 82.4 °F /  28.0 °C 66.2 °F /  19.0 °C 30in /  1017.3hPa ESE 6.2mph /  10km/h 8.1mph /  13km/h 57% 0in /  0.00mm 0.00 W/m2 unknown
21:49 82.4 °F /  28.0 °C 66.2 °F /  19.0 °C 30in /  1017.4hPa ESE 6.2mph /  10km/h 8.1mph /  13km/h 57% 0in /  0.00mm 0.00 W/m2 unknown
21:54 82.4 °F /  28.0 °C 66.2 °F /  19.0 °C 30.1in /  1017.5hPa SE 6.2mph /  10km/h 9.3mph /  15km/h 56% 0in /  0.00mm 0.00 W/m2 unknown
21:59 82.4 °F /  28.0 °C 64.4 °F /  18.0 °C 30.1in /  1017.5hPa ESE 6.2mph /  10km/h 9.3mph /  15km/h 55% 0in /  0.00mm 0.00 W/m2 unknown
22:04 82.4 °F /  28.0 °C 64.4 °F /  18.0 °C 30.1in /  1017.6hPa ESE 6.2mph /  10km/h 8.7mph /  14km/h 55% 0in /  0.00mm 0.00 W/m2 unknown
22:09 82.4 °F /  28.0 °C 64.4 °F /  18.0 °C 30.1in /  1017.7hPa East 5mph /  8km/h 8.1mph /  13km/h 55% 0in /  0.00mm 0.00 W/m2 unknown
22:14 82.4 °F /  28.0 °C 64.4 °F /  18.0 °C 30.1in /  1017.8hPa East 5mph /  8km/h 8.1mph /  13km/h 56% 0in /  0.00mm 0.00 W/m2 unknown
22:19 82.4 °F /  28.0 °C 64.4 °F /  18.0 °C 30.1in /  1017.8hPa East 5mph /  8km/h 6.8mph /  11km/h 57% 0in /  0.00mm 0.00 W/m2 unknown
22:24 80.6 °F /  27.0 °C 64.4 °F /  18.0 °C 30.1in /  1017.9hPa ESE 4.3mph /  7km/h 6.8mph /  11km/h 57% 0in /  0.00mm 0.00 W/m2 unknown
22:29 80.6 °F /  27.0 °C 64.4 °F /  18.0 °C 30.1in /  1018.0hPa East 4.3mph /  7km/h 8.1mph /  13km/h 57% 0in /  0.00mm 0.00 W/m2 unknown
22:34 80.6 °F /  27.0 °C 64.4 °F /  18.0 °C 30.1in /  1018.1hPa East 5mph /  8km/h 8.1mph /  13km/h 58% 0in /  0.00mm 0.00 W/m2 unknown
22:39 80.6 °F /  27.0 °C 64.4 °F /  18.0 °C 30.1in /  1018.1hPa East 5mph /  8km/h 8.1mph /  13km/h 58% 0in /  0.00mm 0.00 W/m2 unknown
22:44 80.6 °F /  27.0 °C 64.4 °F /  18.0 °C 30.1in /  1018.3hPa ENE 3.1mph /  5km/h 8.1mph /  13km/h 58% 0in /  0.00mm 0.00 W/m2 unknown
22:49 80.6 °F /  27.0 °C 62.6 °F /  17.0 °C 30.1in /  1018.5hPa NE 5mph /  8km/h 6.8mph /  11km/h 57% 0in /  0.00mm 0.00 W/m2 unknown
22:54 80.6 °F /  27.0 °C 64.4 °F /  18.0 °C 30.1in /  1018.6hPa NE 5mph /  8km/h 6.8mph /  11km/h 58% 0in /  0.00mm 0.00 W/m2 unknown
22:59 80.6 °F /  27.0 °C 64.4 °F /  18.0 °C 30.1in /  1018.6hPa ENE 5mph /  8km/h 6.8mph /  11km/h 58% 0in /  0.00mm 0.00 W/m2 unknown
23:04 78.8 °F /  26.0 °C 64.4 °F /  18.0 °C 30.1in /  1018.6hPa NE 5.6mph /  9km/h 8.1mph /  13km/h 59% 0in /  0.00mm 0.00 W/m2 unknown
23:09 78.8 °F /  26.0 °C 64.4 °F /  18.0 °C 30.1in /  1018.6hPa NE 6.2mph /  10km/h 8.1mph /  13km/h 59% 0in /  0.00mm 0.00 W/m2 unknown
23:14 78.8 °F /  26.0 °C 64.4 °F /  18.0 °C 30.1in /  1018.6hPa NE 6.2mph /  10km/h 8.1mph /  13km/h 60% 0in /  0.00mm 0.00 W/m2 unknown
23:19 78.8 °F /  26.0 °C 64.4 °F /  18.0 °C 30.1in /  1018.7hPa ENE 6.2mph /  10km/h 8.1mph /  13km/h 61% 0in /  0.00mm 0.00 W/m2 unknown
23:24 78.8 °F /  26.0 °C 64.4 °F /  18.0 °C 30.1in /  1018.8hPa NE 6.2mph /  10km/h 8.1mph /  13km/h 61% 0in /  0.00mm 0.00 W/m2 unknown
23:29 77 °F /  25.0 °C 64.4 °F /  18.0 °C 30.1in /  1018.9hPa NE 6.8mph /  11km/h 10.6mph /  17km/h 62% 0in /  0.00mm 0.00 W/m2 unknown
23:34 77 °F /  25.0 °C 62.6 °F /  17.0 °C 30.1in /  1018.9hPa ENE 6.8mph /  11km/h 10.6mph /  17km/h 61% 0in /  0.00mm 0.00 W/m2 unknown
23:39 77 °F /  25.0 °C 62.6 °F /  17.0 °C 30.1in /  1019.0hPa NE 7.5mph /  12km/h 10.6mph /  17km/h 61% 0in /  0.00mm 0.00 W/m2 unknown
23:44 77 °F /  25.0 °C 62.6 °F /  17.0 °C 30.1in /  1019.0hPa ENE 7.5mph /  12km/h 10.6mph /  17km/h 61% 0in /  0.00mm 0.00 W/m2 unknown
23:49 77 °F /  25.0 °C 62.6 °F /  17.0 °C 30.1in /  1019.1hPa NE 6.8mph /  11km/h 10.6mph /  17km/h 61% 0in /  0.00mm 0.00 W/m2 unknown
23:54 77 °F /  25.0 °C 62.6 °F /  17.0 °C 30.1in /  1019.1hPa ENE 6.8mph /  11km/h 9.9mph /  16km/h 62% 0in /  0.00mm 0.00 W/m2 unknown
23:59 77 °F /  25.0 °C 62.6 °F /  17.0 °C 30.1in /  1019.2hPa ENE 6.2mph /  10km/h 9.3mph /  15km/h 62% 0in /  0.00mm 0.00 W/m2 unknown
Stazione Meteorologica MeteoMincio Rivalta s/M (MN)
Con i complimenti di Weather Underground - 4 mb



METEO PILLOLE
Maggior quantità di pioggia caduta in un minuto
Unionville (152 m) - USA
il 4 luglio 1956 caddero 31.2mm.
Share

Non seguire questo link o sarai bannato dal sito!